sensor_id;sensor_type;location;lat;lon;timestamp;P1;durP1;ratioP1;P2;durP2;ratioP2
22415;SDS011;12204;50.600;4.608;2022-12-07T00:03:26;10.15;;;4.32;;
22415;SDS011;12204;50.600;4.608;2022-12-07T00:08:31;9.82;;;4.60;;
22415;SDS011;12204;50.600;4.608;2022-12-07T00:13:37;12.02;;;4.47;;
22415;SDS011;12204;50.600;4.608;2022-12-07T00:18:42;8.77;;;4.47;;
22415;SDS011;12204;50.600;4.608;2022-12-07T00:23:49;10.20;;;4.75;;
22415;SDS011;12204;50.600;4.608;2022-12-07T00:28:56;12.32;;;4.82;;
22415;SDS011;12204;50.600;4.608;2022-12-07T00:34:02;11.73;;;4.85;;
22415;SDS011;12204;50.600;4.608;2022-12-07T00:39:08;11.10;;;4.85;;
22415;SDS011;12204;50.600;4.608;2022-12-07T00:44:12;9.80;;;4.57;;
22415;SDS011;12204;50.600;4.608;2022-12-07T00:49:16;9.48;;;4.22;;
22415;SDS011;12204;50.600;4.608;2022-12-07T00:54:21;9.65;;;4.38;;
22415;SDS011;12204;50.600;4.608;2022-12-07T00:59:24;11.02;;;4.32;;
22415;SDS011;12204;50.600;4.608;2022-12-07T01:04:28;10.73;;;4.45;;
22415;SDS011;12204;50.600;4.608;2022-12-07T01:09:34;9.00;;;4.40;;
22415;SDS011;12204;50.600;4.608;2022-12-07T01:14:38;9.45;;;4.60;;
22415;SDS011;12204;50.600;4.608;2022-12-07T01:19:41;8.98;;;4.15;;
22415;SDS011;12204;50.600;4.608;2022-12-07T01:24:47;10.27;;;4.32;;
22415;SDS011;12204;50.600;4.608;2022-12-07T01:29:51;8.57;;;4.40;;
22415;SDS011;12204;50.600;4.608;2022-12-07T01:34:55;8.93;;;4.25;;
22415;SDS011;12204;50.600;4.608;2022-12-07T01:40:00;9.05;;;4.10;;
22415;SDS011;12204;50.600;4.608;2022-12-07T01:50:44;8.77;;;4.45;;
22415;SDS011;12204;50.600;4.608;2022-12-07T01:55:53;9.32;;;4.40;;
22415;SDS011;12204;50.600;4.608;2022-12-07T02:00:59;10.00;;;4.30;;
22415;SDS011;12204;50.600;4.608;2022-12-07T02:06:03;8.30;;;4.20;;
22415;SDS011;12204;50.600;4.608;2022-12-07T02:11:10;9.98;;;4.60;;
22415;SDS011;12204;50.600;4.608;2022-12-07T02:16:18;9.75;;;4.40;;
22415;SDS011;12204;50.600;4.608;2022-12-07T02:21:33;8.98;;;4.32;;
22415;SDS011;12204;50.600;4.608;2022-12-07T02:26:49;9.52;;;4.30;;
22415;SDS011;12204;50.600;4.608;2022-12-07T02:32:23;10.40;;;4.35;;
22415;SDS011;12204;50.600;4.608;2022-12-07T02:37:34;10.93;;;4.40;;
22415;SDS011;12204;50.600;4.608;2022-12-07T02:42:45;8.65;;;4.15;;
22415;SDS011;12204;50.600;4.608;2022-12-07T02:47:57;8.70;;;4.40;;
22415;SDS011;12204;50.600;4.608;2022-12-07T02:58:14;7.90;;;4.13;;
22415;SDS011;12204;50.600;4.608;2022-12-07T03:03:31;8.05;;;3.90;;
22415;SDS011;12204;50.600;4.608;2022-12-07T03:08:41;9.60;;;4.15;;
22415;SDS011;12204;50.600;4.608;2022-12-07T03:13:56;9.18;;;4.20;;
22415;SDS011;12204;50.600;4.608;2022-12-07T03:19:09;7.75;;;3.70;;
22415;SDS011;12204;50.600;4.608;2022-12-07T03:24:19;7.63;;;3.72;;
22415;SDS011;12204;50.600;4.608;2022-12-07T03:34:36;7.95;;;4.00;;
22415;SDS011;12204;50.600;4.608;2022-12-07T03:39:45;7.57;;;3.95;;
22415;SDS011;12204;50.600;4.608;2022-12-07T03:45:01;7.70;;;3.63;;
22415;SDS011;12204;50.600;4.608;2022-12-07T03:50:09;7.90;;;4.10;;
22415;SDS011;12204;50.600;4.608;2022-12-07T03:55:19;8.38;;;3.92;;
22415;SDS011;12204;50.600;4.608;2022-12-07T04:00:30;8.35;;;4.03;;
22415;SDS011;12204;50.600;4.608;2022-12-07T04:05:35;8.45;;;3.60;;
22415;SDS011;12204;50.600;4.608;2022-12-07T04:10:40;12.88;;;3.92;;
22415;SDS011;12204;50.600;4.608;2022-12-07T04:15:43;6.90;;;3.60;;
22415;SDS011;12204;50.600;4.608;2022-12-07T04:20:48;7.63;;;3.40;;
22415;SDS011;12204;50.600;4.608;2022-12-07T04:25:52;8.65;;;3.92;;
22415;SDS011;12204;50.600;4.608;2022-12-07T04:30:56;8.05;;;3.63;;
22415;SDS011;12204;50.600;4.608;2022-12-07T04:36:01;7.40;;;3.67;;
22415;SDS011;12204;50.600;4.608;2022-12-07T04:41:06;7.13;;;3.60;;
22415;SDS011;12204;50.600;4.608;2022-12-07T04:46:11;9.07;;;3.80;;
22415;SDS011;12204;50.600;4.608;2022-12-07T04:51:18;7.38;;;3.53;;
22415;SDS011;12204;50.600;4.608;2022-12-07T04:56:26;7.63;;;4.00;;
22415;SDS011;12204;50.600;4.608;2022-12-07T05:01:29;6.80;;;3.40;;
22415;SDS011;12204;50.600;4.608;2022-12-07T05:06:36;8.32;;;3.78;;
22415;SDS011;12204;50.600;4.608;2022-12-07T05:11:40;6.90;;;3.50;;
22415;SDS011;12204;50.600;4.608;2022-12-07T05:16:45;7.90;;;3.63;;
22415;SDS011;12204;50.600;4.608;2022-12-07T05:21:52;6.90;;;3.60;;
22415;SDS011;12204;50.600;4.608;2022-12-07T05:26:56;7.72;;;3.60;;
22415;SDS011;12204;50.600;4.608;2022-12-07T05:32:00;7.75;;;3.53;;
22415;SDS011;12204;50.600;4.608;2022-12-07T05:37:05;7.18;;;3.38;;
22415;SDS011;12204;50.600;4.608;2022-12-07T05:42:09;5.97;;;3.15;;
22415;SDS011;12204;50.600;4.608;2022-12-07T05:47:16;7.50;;;3.30;;
22415;SDS011;12204;50.600;4.608;2022-12-07T05:52:21;6.93;;;3.30;;
22415;SDS011;12204;50.600;4.608;2022-12-07T05:57:25;7.57;;;3.30;;
22415;SDS011;12204;50.600;4.608;2022-12-07T06:02:29;6.35;;;3.33;;
22415;SDS011;12204;50.600;4.608;2022-12-07T06:07:34;6.85;;;3.30;;
22415;SDS011;12204;50.600;4.608;2022-12-07T06:12:38;8.75;;;3.60;;
22415;SDS011;12204;50.600;4.608;2022-12-07T06:17:44;6.30;;;3.00;;
22415;SDS011;12204;50.600;4.608;2022-12-07T06:22:49;6.03;;;3.13;;
22415;SDS011;12204;50.600;4.608;2022-12-07T06:27:53;7.00;;;3.30;;
22415;SDS011;12204;50.600;4.608;2022-12-07T06:32:57;6.25;;;3.15;;
22415;SDS011;12204;50.600;4.608;2022-12-07T06:38:02;6.28;;;3.05;;
22415;SDS011;12204;50.600;4.608;2022-12-07T06:43:05;6.65;;;2.90;;
22415;SDS011;12204;50.600;4.608;2022-12-07T06:48:09;6.18;;;2.90;;
22415;SDS011;12204;50.600;4.608;2022-12-07T06:53:14;6.05;;;2.90;;
22415;SDS011;12204;50.600;4.608;2022-12-07T06:58:18;6.13;;;2.90;;
22415;SDS011;12204;50.600;4.608;2022-12-07T07:03:22;5.65;;;3.00;;
22415;SDS011;12204;50.600;4.608;2022-12-07T07:08:28;9.15;;;2.90;;
22415;SDS011;12204;50.600;4.608;2022-12-07T07:13:32;6.25;;;2.80;;
22415;SDS011;12204;50.600;4.608;2022-12-07T07:18:37;5.75;;;2.72;;
22415;SDS011;12204;50.600;4.608;2022-12-07T07:23:42;6.15;;;2.95;;
22415;SDS011;12204;50.600;4.608;2022-12-07T07:28:45;5.65;;;2.65;;
22415;SDS011;12204;50.600;4.608;2022-12-07T07:33:50;5.97;;;2.65;;
22415;SDS011;12204;50.600;4.608;2022-12-07T07:38:55;5.65;;;2.60;;
22415;SDS011;12204;50.600;4.608;2022-12-07T07:43:59;5.93;;;2.75;;
22415;SDS011;12204;50.600;4.608;2022-12-07T07:49:03;5.32;;;2.60;;
22415;SDS011;12204;50.600;4.608;2022-12-07T07:54:08;6.53;;;2.72;;
22415;SDS011;12204;50.600;4.608;2022-12-07T07:59:12;5.68;;;2.40;;
22415;SDS011;12204;50.600;4.608;2022-12-07T08:04:15;6.25;;;2.55;;
22415;SDS011;12204;50.600;4.608;2022-12-07T08:09:20;4.78;;;2.40;;
22415;SDS011;12204;50.600;4.608;2022-12-07T08:14:24;4.72;;;2.40;;
22415;SDS011;12204;50.600;4.608;2022-12-07T08:19:30;9.18;;;2.70;;
22415;SDS011;12204;50.600;4.608;2022-12-07T08:24:35;8.75;;;2.53;;
22415;SDS011;12204;50.600;4.608;2022-12-07T08:29:39;10.15;;;3.13;;
22415;SDS011;12204;50.600;4.608;2022-12-07T08:34:43;8.25;;;2.42;;
22415;SDS011;12204;50.600;4.608;2022-12-07T08:39:48;18.42;;;2.85;;
22415;SDS011;12204;50.600;4.608;2022-12-07T08:44:52;12.38;;;3.25;;
22415;SDS011;12204;50.600;4.608;2022-12-07T08:49:55;17.02;;;3.83;;
22415;SDS011;12204;50.600;4.608;2022-12-07T08:55:07;12.88;;;4.25;;
22415;SDS011;12204;50.600;4.608;2022-12-07T09:00:13;10.90;;;4.10;;
22415;SDS011;12204;50.600;4.608;2022-12-07T09:05:19;7.65;;;4.25;;
22415;SDS011;12204;50.600;4.608;2022-12-07T09:10:26;9.65;;;5.03;;
22415;SDS011;12204;50.600;4.608;2022-12-07T09:15:29;19.73;;;6.00;;
22415;SDS011;12204;50.600;4.608;2022-12-07T09:20:34;17.75;;;7.18;;
22415;SDS011;12204;50.600;4.608;2022-12-07T09:25:39;22.27;;;7.40;;
22415;SDS011;12204;50.600;4.608;2022-12-07T09:30:45;21.25;;;8.18;;
22415;SDS011;12204;50.600;4.608;2022-12-07T09:36:09;19.17;;;7.70;;
22415;SDS011;12204;50.600;4.608;2022-12-07T09:41:14;17.25;;;7.43;;
22415;SDS011;12204;50.600;4.608;2022-12-07T09:46:19;16.70;;;7.05;;
22415;SDS011;12204;50.600;4.608;2022-12-07T09:51:24;18.52;;;7.00;;
22415;SDS011;12204;50.600;4.608;2022-12-07T09:56:29;18.55;;;7.10;;
22415;SDS011;12204;50.600;4.608;2022-12-07T10:01:34;14.63;;;6.75;;
22415;SDS011;12204;50.600;4.608;2022-12-07T10:06:40;18.30;;;6.80;;
22415;SDS011;12204;50.600;4.608;2022-12-07T10:11:59;19.25;;;6.75;;
22415;SDS011;12204;50.600;4.608;2022-12-07T10:22:35;16.10;;;6.20;;
22415;SDS011;12204;50.600;4.608;2022-12-07T10:27:40;20.45;;;6.50;;
22415;SDS011;12204;50.600;4.608;2022-12-07T10:32:44;15.50;;;6.38;;
22415;SDS011;12204;50.600;4.608;2022-12-07T10:37:47;15.65;;;6.88;;
22415;SDS011;12204;50.600;4.608;2022-12-07T10:43:01;15.63;;;6.38;;
22415;SDS011;12204;50.600;4.608;2022-12-07T10:48:22;17.40;;;6.85;;
22415;SDS011;12204;50.600;4.608;2022-12-07T10:59:19;15.00;;;6.35;;
22415;SDS011;12204;50.600;4.608;2022-12-07T11:05:02;15.18;;;6.32;;
22415;SDS011;12204;50.600;4.608;2022-12-07T11:10:21;13.65;;;6.35;;
22415;SDS011;12204;50.600;4.608;2022-12-07T11:15:37;15.48;;;6.15;;
22415;SDS011;12204;50.600;4.608;2022-12-07T11:21:03;13.70;;;6.60;;
22415;SDS011;12204;50.600;4.608;2022-12-07T11:26:17;14.05;;;5.88;;
22415;SDS011;12204;50.600;4.608;2022-12-07T11:31:41;16.58;;;6.07;;
22415;SDS011;12204;50.600;4.608;2022-12-07T11:37:02;14.57;;;5.93;;
22415;SDS011;12204;50.600;4.608;2022-12-07T11:42:14;14.30;;;5.40;;
22415;SDS011;12204;50.600;4.608;2022-12-07T11:47:28;12.85;;;5.10;;
22415;SDS011;12204;50.600;4.608;2022-12-07T11:52:47;14.80;;;4.80;;
22415;SDS011;12204;50.600;4.608;2022-12-07T11:57:58;10.35;;;4.60;;
22415;SDS011;12204;50.600;4.608;2022-12-07T12:03:17;12.90;;;4.85;;
22415;SDS011;12204;50.600;4.608;2022-12-07T12:08:32;10.82;;;4.53;;
22415;SDS011;12204;50.600;4.608;2022-12-07T12:14:05;9.93;;;4.45;;
22415;SDS011;12204;50.600;4.608;2022-12-07T12:19:58;11.88;;;4.18;;
22415;SDS011;12204;50.600;4.608;2022-12-07T12:25:13;11.45;;;4.93;;
22415;SDS011;12204;50.600;4.608;2022-12-07T12:30:32;13.30;;;5.10;;
22415;SDS011;12204;50.600;4.608;2022-12-07T12:35:42;13.75;;;5.72;;
22415;SDS011;12204;50.600;4.608;2022-12-07T12:40:46;17.20;;;5.80;;
22415;SDS011;12204;50.600;4.608;2022-12-07T12:45:51;15.90;;;6.20;;
22415;SDS011;12204;50.600;4.608;2022-12-07T12:51:52;19.92;;;5.70;;
22415;SDS011;12204;50.600;4.608;2022-12-07T12:56:59;16.60;;;5.40;;
22415;SDS011;12204;50.600;4.608;2022-12-07T13:02:15;17.48;;;5.07;;
22415;SDS011;12204;50.600;4.608;2022-12-07T13:13:25;15.55;;;4.88;;
22415;SDS011;12204;50.600;4.608;2022-12-07T13:18:37;16.58;;;4.97;;
22415;SDS011;12204;50.600;4.608;2022-12-07T13:23:54;15.20;;;4.75;;
22415;SDS011;12204;50.600;4.608;2022-12-07T13:29:05;14.90;;;4.95;;
22415;SDS011;12204;50.600;4.608;2022-12-07T13:39:44;15.73;;;5.05;;
22415;SDS011;12204;50.600;4.608;2022-12-07T13:44:51;17.38;;;5.18;;
22415;SDS011;12204;50.600;4.608;2022-12-07T13:49:56;16.15;;;4.63;;
22415;SDS011;12204;50.600;4.608;2022-12-07T13:55:05;14.02;;;4.90;;
22415;SDS011;12204;50.600;4.608;2022-12-07T14:00:19;17.42;;;5.03;;
22415;SDS011;12204;50.600;4.608;2022-12-07T14:05:27;14.07;;;4.57;;
22415;SDS011;12204;50.600;4.608;2022-12-07T14:10:35;14.73;;;4.95;;
22415;SDS011;12204;50.600;4.608;2022-12-07T14:15:42;12.32;;;4.32;;
22415;SDS011;12204;50.600;4.608;2022-12-07T14:20:46;14.57;;;4.95;;
22415;SDS011;12204;50.600;4.608;2022-12-07T14:25:52;12.07;;;4.30;;
22415;SDS011;12204;50.600;4.608;2022-12-07T14:30:56;14.30;;;4.50;;
22415;SDS011;12204;50.600;4.608;2022-12-07T14:36:00;14.85;;;4.75;;
22415;SDS011;12204;50.600;4.608;2022-12-07T14:41:06;14.70;;;4.53;;
22415;SDS011;12204;50.600;4.608;2022-12-07T14:46:36;15.48;;;4.53;;
22415;SDS011;12204;50.600;4.608;2022-12-07T14:51:40;12.40;;;4.10;;
22415;SDS011;12204;50.600;4.608;2022-12-07T14:57:09;14.13;;;4.28;;
22415;SDS011;12204;50.600;4.608;2022-12-07T15:02:14;11.02;;;3.95;;
22415;SDS011;12204;50.600;4.608;2022-12-07T15:07:19;13.63;;;4.32;;
22415;SDS011;12204;50.600;4.608;2022-12-07T15:12:25;15.50;;;4.32;;
22415;SDS011;12204;50.600;4.608;2022-12-07T15:17:29;14.20;;;4.03;;
22415;SDS011;12204;50.600;4.608;2022-12-07T15:22:33;11.70;;;3.85;;
22415;SDS011;12204;50.600;4.608;2022-12-07T15:27:40;13.77;;;4.18;;
22415;SDS011;12204;50.600;4.608;2022-12-07T15:32:48;16.50;;;4.00;;
22415;SDS011;12204;50.600;4.608;2022-12-07T15:37:53;10.82;;;3.55;;
22415;SDS011;12204;50.600;4.608;2022-12-07T15:42:58;11.85;;;3.90;;
22415;SDS011;12204;50.600;4.608;2022-12-07T15:48:02;11.82;;;3.78;;
22415;SDS011;12204;50.600;4.608;2022-12-07T15:53:28;11.90;;;3.70;;
22415;SDS011;12204;50.600;4.608;2022-12-07T15:58:33;11.10;;;3.38;;
22415;SDS011;12204;50.600;4.608;2022-12-07T16:03:40;10.35;;;3.47;;
22415;SDS011;12204;50.600;4.608;2022-12-07T16:08:44;9.82;;;3.45;;
22415;SDS011;12204;50.600;4.608;2022-12-07T16:13:50;11.20;;;3.15;;
22415;SDS011;12204;50.600;4.608;2022-12-07T16:18:55;9.07;;;3.10;;
22415;SDS011;12204;50.600;4.608;2022-12-07T16:24:00;9.05;;;3.05;;
22415;SDS011;12204;50.600;4.608;2022-12-07T16:29:05;10.25;;;3.17;;
22415;SDS011;12204;50.600;4.608;2022-12-07T16:34:09;7.03;;;2.88;;
22415;SDS011;12204;50.600;4.608;2022-12-07T16:39:13;8.23;;;2.78;;
22415;SDS011;12204;50.600;4.608;2022-12-07T16:44:21;9.27;;;2.80;;
22415;SDS011;12204;50.600;4.608;2022-12-07T16:49:25;6.75;;;2.40;;
22415;SDS011;12204;50.600;4.608;2022-12-07T16:54:28;8.27;;;2.10;;
22415;SDS011;12204;50.600;4.608;2022-12-07T16:59:35;7.00;;;2.20;;
22415;SDS011;12204;50.600;4.608;2022-12-07T17:04:40;10.13;;;2.10;;
22415;SDS011;12204;50.600;4.608;2022-12-07T17:09:44;19.33;;;3.33;;
22415;SDS011;12204;50.600;4.608;2022-12-07T17:14:49;19.17;;;2.75;;
22415;SDS011;12204;50.600;4.608;2022-12-07T17:20:11;14.68;;;3.15;;
22415;SDS011;12204;50.600;4.608;2022-12-07T17:25:18;12.27;;;2.97;;
22415;SDS011;12204;50.600;4.608;2022-12-07T17:30:24;16.63;;;3.00;;
22415;SDS011;12204;50.600;4.608;2022-12-07T17:35:31;15.18;;;2.78;;
22415;SDS011;12204;50.600;4.608;2022-12-07T17:40:35;12.95;;;2.38;;
22415;SDS011;12204;50.600;4.608;2022-12-07T17:45:40;19.25;;;2.50;;
22415;SDS011;12204;50.600;4.608;2022-12-07T17:50:43;11.68;;;2.33;;
22415;SDS011;12204;50.600;4.608;2022-12-07T17:56:05;12.35;;;2.28;;
22415;SDS011;12204;50.600;4.608;2022-12-07T18:01:30;18.42;;;2.10;;
22415;SDS011;12204;50.600;4.608;2022-12-07T18:06:35;17.30;;;2.20;;
22415;SDS011;12204;50.600;4.608;2022-12-07T18:11:40;12.57;;;2.45;;
22415;SDS011;12204;50.600;4.608;2022-12-07T18:16:45;14.52;;;2.30;;
22415;SDS011;12204;50.600;4.608;2022-12-07T18:21:50;12.50;;;2.10;;
22415;SDS011;12204;50.600;4.608;2022-12-07T18:26:55;13.13;;;2.17;;
22415;SDS011;12204;50.600;4.608;2022-12-07T18:32:01;10.25;;;1.98;;
22415;SDS011;12204;50.600;4.608;2022-12-07T18:37:06;9.03;;;1.83;;
22415;SDS011;12204;50.600;4.608;2022-12-07T18:42:10;8.57;;;2.17;;
22415;SDS011;12204;50.600;4.608;2022-12-07T18:47:16;9.95;;;1.85;;
22415;SDS011;12204;50.600;4.608;2022-12-07T18:52:19;7.88;;;2.03;;
22415;SDS011;12204;50.600;4.608;2022-12-07T18:57:23;6.80;;;1.70;;
22415;SDS011;12204;50.600;4.608;2022-12-07T19:02:31;10.10;;;2.00;;
22415;SDS011;12204;50.600;4.608;2022-12-07T19:07:36;8.85;;;1.90;;
22415;SDS011;12204;50.600;4.608;2022-12-07T19:12:39;6.43;;;1.60;;
22415;SDS011;12204;50.600;4.608;2022-12-07T19:17:48;5.30;;;1.60;;
22415;SDS011;12204;50.600;4.608;2022-12-07T19:22:52;7.28;;;1.88;;
22415;SDS011;12204;50.600;4.608;2022-12-07T19:27:56;7.28;;;1.70;;
22415;SDS011;12204;50.600;4.608;2022-12-07T19:33:01;5.75;;;1.60;;
22415;SDS011;12204;50.600;4.608;2022-12-07T19:38:05;6.07;;;1.50;;
22415;SDS011;12204;50.600;4.608;2022-12-07T19:43:09;5.25;;;1.50;;
22415;SDS011;12204;50.600;4.608;2022-12-07T19:48:14;5.30;;;1.60;;
22415;SDS011;12204;50.600;4.608;2022-12-07T19:53:18;6.72;;;1.70;;
22415;SDS011;12204;50.600;4.608;2022-12-07T19:58:21;6.65;;;1.63;;
22415;SDS011;12204;50.600;4.608;2022-12-07T20:03:26;4.70;;;1.30;;
22415;SDS011;12204;50.600;4.608;2022-12-07T20:08:30;5.25;;;1.30;;
22415;SDS011;12204;50.600;4.608;2022-12-07T20:13:34;7.15;;;1.50;;
22415;SDS011;12204;50.600;4.608;2022-12-07T20:18:39;5.20;;;1.20;;
22415;SDS011;12204;50.600;4.608;2022-12-07T20:23:43;4.75;;;1.50;;
22415;SDS011;12204;50.600;4.608;2022-12-07T20:28:47;5.00;;;1.48;;
22415;SDS011;12204;50.600;4.608;2022-12-07T20:33:52;8.52;;;3.75;;
22415;SDS011;12204;50.600;4.608;2022-12-07T20:38:57;21.98;;;12.48;;
22415;SDS011;12204;50.600;4.608;2022-12-07T20:44:03;20.77;;;11.52;;
22415;SDS011;12204;50.600;4.608;2022-12-07T20:49:08;24.15;;;12.15;;
22415;SDS011;12204;50.600;4.608;2022-12-07T20:54:14;27.05;;;14.25;;
22415;SDS011;12204;50.600;4.608;2022-12-07T20:59:17;25.50;;;15.05;;
22415;SDS011;12204;50.600;4.608;2022-12-07T21:04:23;29.73;;;16.98;;
22415;SDS011;12204;50.600;4.608;2022-12-07T21:09:26;29.80;;;16.67;;
22415;SDS011;12204;50.600;4.608;2022-12-07T21:14:30;29.48;;;15.50;;
22415;SDS011;12204;50.600;4.608;2022-12-07T21:19:35;27.92;;;16.77;;
22415;SDS011;12204;50.600;4.608;2022-12-07T21:24:39;30.88;;;16.92;;
22415;SDS011;12204;50.600;4.608;2022-12-07T21:29:43;26.80;;;16.38;;
22415;SDS011;12204;50.600;4.608;2022-12-07T21:34:55;31.30;;;17.67;;
22415;SDS011;12204;50.600;4.608;2022-12-07T21:39:59;32.00;;;17.63;;
22415;SDS011;12204;50.600;4.608;2022-12-07T21:45:03;29.77;;;17.55;;
22415;SDS011;12204;50.600;4.608;2022-12-07T21:50:10;31.13;;;18.23;;
22415;SDS011;12204;50.600;4.608;2022-12-07T21:55:14;29.42;;;17.25;;
22415;SDS011;12204;50.600;4.608;2022-12-07T22:00:18;30.15;;;17.70;;
22415;SDS011;12204;50.600;4.608;2022-12-07T22:05:26;29.90;;;17.42;;
22415;SDS011;12204;50.600;4.608;2022-12-07T22:10:30;30.52;;;17.80;;
22415;SDS011;12204;50.600;4.608;2022-12-07T22:15:33;29.55;;;16.80;;
22415;SDS011;12204;50.600;4.608;2022-12-07T22:20:39;26.55;;;15.95;;
22415;SDS011;12204;50.600;4.608;2022-12-07T22:25:42;30.58;;;16.83;;
22415;SDS011;12204;50.600;4.608;2022-12-07T22:30:46;27.98;;;15.98;;
22415;SDS011;12204;50.600;4.608;2022-12-07T22:35:52;28.48;;;15.60;;
22415;SDS011;12204;50.600;4.608;2022-12-07T22:40:56;28.00;;;15.68;;
22415;SDS011;12204;50.600;4.608;2022-12-07T22:46:00;28.20;;;14.80;;
22415;SDS011;12204;50.600;4.608;2022-12-07T22:51:06;22.77;;;12.90;;
22415;SDS011;12204;50.600;4.608;2022-12-07T22:56:21;21.80;;;12.20;;
22415;SDS011;12204;50.600;4.608;2022-12-07T23:01:25;23.65;;;11.45;;
22415;SDS011;12204;50.600;4.608;2022-12-07T23:06:31;19.73;;;10.93;;
22415;SDS011;12204;50.600;4.608;2022-12-07T23:11:38;19.98;;;10.57;;
22415;SDS011;12204;50.600;4.608;2022-12-07T23:17:02;19.33;;;10.00;;
22415;SDS011;12204;50.600;4.608;2022-12-07T23:22:08;20.63;;;10.20;;
22415;SDS011;12204;50.600;4.608;2022-12-07T23:27:11;17.20;;;9.40;;
22415;SDS011;12204;50.600;4.608;2022-12-07T23:32:15;18.05;;;9.30;;
22415;SDS011;12204;50.600;4.608;2022-12-07T23:37:20;15.60;;;8.27;;
22415;SDS011;12204;50.600;4.608;2022-12-07T23:42:24;16.13;;;8.38;;
22415;SDS011;12204;50.600;4.608;2022-12-07T23:47:27;15.45;;;7.85;;
22415;SDS011;12204;50.600;4.608;2022-12-07T23:52:32;16.33;;;7.25;;
22415;SDS011;12204;50.600;4.608;2022-12-07T23:57:36;17.00;;;7.72;;
